createdAt,value
2018-05-10T00:00:08.651Z,8.13
2018-05-10T00:02:36.104Z,9.63
2018-05-10T00:05:03.567Z,8.00
2018-05-10T00:07:31.039Z,12.40
2018-05-10T00:09:59.262Z,9.00
2018-05-10T00:12:26.727Z,10.00
2018-05-10T00:14:54.182Z,11.47
2018-05-10T00:17:21.742Z,10.03
2018-05-10T00:19:49.207Z,8.17
2018-05-10T00:22:16.665Z,9.83
2018-05-10T00:24:44.136Z,10.13
2018-05-10T00:27:11.604Z,7.83
2018-05-10T00:29:39.835Z,10.40
2018-05-10T00:32:07.305Z,12.87
2018-05-10T00:34:34.767Z,8.07
2018-05-10T00:37:02.235Z,11.10
2018-05-10T00:39:29.880Z,9.60
2018-05-10T00:41:57.337Z,7.70
2018-05-10T00:44:24.807Z,7.63
2018-05-10T00:46:52.315Z,8.50
2018-05-10T00:49:20.553Z,8.83
2018-05-10T00:51:48.028Z,11.97
2018-05-10T00:54:27.415Z,9.80
2018-05-10T00:56:54.906Z,11.13
2018-05-10T00:59:22.374Z,10.30
2018-05-10T01:01:49.843Z,10.30
2018-05-10T01:04:17.302Z,11.33
2018-05-10T01:06:44.779Z,14.47
2018-05-10T01:09:12.999Z,9.07
2018-05-10T01:11:40.475Z,15.23
2018-05-10T01:14:07.939Z,13.57
2018-05-10T01:16:35.410Z,10.60
2018-05-10T01:19:02.875Z,12.00
2018-05-10T01:21:31.110Z,13.07
2018-05-10T01:23:58.575Z,12.33
2018-05-10T01:26:26.042Z,13.33
2018-05-10T01:28:53.510Z,12.33
2018-05-10T01:31:20.973Z,12.33
2018-05-10T01:34:03.282Z,11.37
2018-05-10T01:36:30.768Z,13.97
2018-05-10T01:38:59.094Z,10.23
2018-05-10T01:41:26.567Z,21.97
2018-05-10T01:43:54.030Z,16.40
2018-05-10T01:46:21.498Z,11.30
2018-05-10T01:48:48.967Z,13.50
2018-05-10T01:51:17.199Z,13.00
2018-05-10T01:53:44.666Z,11.03
2018-05-10T01:56:12.409Z,11.27
2018-05-10T01:58:39.875Z,11.33
2018-05-10T02:01:07.338Z,12.83
2018-05-10T02:03:34.815Z,13.10
2018-05-10T02:06:02.279Z,13.50
2018-05-10T02:08:29.759Z,12.97
2018-05-10T02:10:57.234Z,19.97
2018-05-10T02:13:24.715Z,13.00
2018-05-10T02:15:52.187Z,15.33
2018-05-10T02:18:19.673Z,13.60
2018-05-10T02:20:47.154Z,13.57
2018-05-10T02:23:15.393Z,13.00
2018-05-10T02:25:42.840Z,13.33
2018-05-10T02:28:10.319Z,14.17
2018-05-10T02:30:37.843Z,12.43
2018-05-10T02:33:05.314Z,13.07
2018-05-10T02:35:32.773Z,13.27
2018-05-10T02:38:00.263Z,14.50
2018-05-10T02:40:27.742Z,12.30
2018-05-10T02:42:55.981Z,13.10
2018-05-10T02:45:23.441Z,14.87
2018-05-10T02:47:50.919Z,11.80
2018-05-10T02:50:18.387Z,13.20
2018-05-10T02:52:45.846Z,13.43
2018-05-10T02:55:14.078Z,14.87
2018-05-10T02:57:41.555Z,13.90
2018-05-10T03:00:09.043Z,13.60
2018-05-10T03:02:37.283Z,15.77
2018-05-10T03:05:04.746Z,15.20
2018-05-10T03:07:32.214Z,13.17
2018-05-10T03:09:59.759Z,15.33
2018-05-10T03:12:27.235Z,14.83
2018-05-10T03:14:54.698Z,15.77
2018-05-10T03:17:22.170Z,16.80
2018-05-10T03:19:50.410Z,17.07
2018-05-10T03:22:17.915Z,16.87
2018-05-10T03:24:46.147Z,17.87
2018-05-10T03:27:13.622Z,16.37
2018-05-10T03:29:41.852Z,15.83
2018-05-10T03:32:09.333Z,16.03
2018-05-10T03:34:36.798Z,17.63
2018-05-10T03:37:04.304Z,15.93
2018-05-10T03:39:31.773Z,16.43
2018-05-10T03:41:59.239Z,16.27
2018-05-10T03:44:26.779Z,16.57
2018-05-10T03:46:55.011Z,15.40
2018-05-10T03:49:22.480Z,17.63
2018-05-10T03:51:49.933Z,16.77
2018-05-10T03:54:17.404Z,15.87
2018-05-10T03:56:44.861Z,15.23
2018-05-10T03:59:12.333Z,16.57
2018-05-10T04:01:40.570Z,17.43
2018-05-10T04:07:21.126Z,14.73
2018-05-10T04:10:01.094Z,14.87
2018-05-10T04:12:29.299Z,14.97
2018-05-10T04:14:56.761Z,15.07
2018-05-10T04:17:24.296Z,12.97
2018-05-10T04:19:51.764Z,14.03
2018-05-10T04:22:19.220Z,12.20
2018-05-10T04:24:46.667Z,12.50
2018-05-10T04:27:14.131Z,12.63
2018-05-10T04:29:41.692Z,14.27
2018-05-10T04:32:09.152Z,12.77
2018-05-10T04:34:36.604Z,11.30
2018-05-10T04:37:04.832Z,11.57
2018-05-10T04:39:32.285Z,11.50
2018-05-10T04:41:59.744Z,11.30
2018-05-10T04:44:27.192Z,11.43
2018-05-10T04:46:55.416Z,11.60
2018-05-10T04:49:22.873Z,12.30
2018-05-10T04:51:50.340Z,11.40
2018-05-10T04:54:17.792Z,11.10
2018-05-10T04:56:46.007Z,12.67
2018-05-10T04:59:13.461Z,12.90
2018-05-10T05:01:40.911Z,13.37
2018-05-10T05:04:09.126Z,10.43
2018-05-10T05:06:36.567Z,11.33
2018-05-10T05:09:04.814Z,11.83
2018-05-10T05:11:32.240Z,10.33
2018-05-10T05:13:59.708Z,10.50
2018-05-10T05:16:27.174Z,9.97
2018-05-10T05:18:54.633Z,9.87
2018-05-10T05:21:22.851Z,10.07
2018-05-10T05:23:50.315Z,12.00
2018-05-10T05:26:17.766Z,11.77
2018-05-10T05:28:45.982Z,13.63
2018-05-10T05:31:13.427Z,11.50
2018-05-10T05:33:40.898Z,11.17
2018-05-10T05:36:08.340Z,13.50
2018-05-10T05:38:36.567Z,13.80
2018-05-10T05:41:04.098Z,13.70
2018-05-10T05:43:31.553Z,13.97
2018-05-10T05:45:58.926Z,12.43
2018-05-10T05:48:27.160Z,13.70
2018-05-10T05:50:54.616Z,15.80
2018-05-10T05:53:22.141Z,14.47
2018-05-10T05:55:49.521Z,15.13
2018-05-10T05:58:17.749Z,15.63
2018-05-10T06:00:45.193Z,16.47
2018-05-10T06:03:12.663Z,17.83
2018-05-10T06:05:40.116Z,18.30
2018-05-10T06:08:08.352Z,13.27
2018-05-10T06:10:35.799Z,18.17
2018-05-10T06:13:03.248Z,17.37
2018-05-10T06:15:31.566Z,17.00
2018-05-10T06:17:58.931Z,14.87
2018-05-10T06:20:26.392Z,15.93
2018-05-10T06:22:53.842Z,17.67
2018-05-10T06:25:22.152Z,15.93
2018-05-10T06:27:49.613Z,19.53
2018-05-10T06:30:17.072Z,19.50
2018-05-10T06:32:45.388Z,18.70
2018-05-10T06:35:12.906Z,17.93
2018-05-10T06:37:40.332Z,18.97
2018-05-10T06:40:07.797Z,19.13
2018-05-10T06:42:35.235Z,19.27
2018-05-10T06:45:02.700Z,18.50
2018-05-10T06:47:30.916Z,16.77
2018-05-10T06:49:58.384Z,21.07
2018-05-10T06:52:25.853Z,20.93
2018-05-10T06:54:53.308Z,21.90
2018-05-10T06:57:20.755Z,24.53
2018-05-10T06:59:49.028Z,23.47
2018-05-10T07:02:16.608Z,24.43
2018-05-10T07:04:44.007Z,32.57
2018-05-10T07:07:11.447Z,36.23
2018-05-10T07:09:39.820Z,39.27
2018-05-10T07:12:07.118Z,35.50
2018-05-10T07:14:35.339Z,39.03
2018-05-10T07:17:02.786Z,38.53
2018-05-10T07:19:30.252Z,38.60
2018-05-10T07:21:57.726Z,33.93
2018-05-10T07:24:25.218Z,35.50
2018-05-10T07:26:52.660Z,35.00
2018-05-10T07:29:20.124Z,37.50
2018-05-10T07:31:47.568Z,40.43
2018-05-10T07:34:15.800Z,38.90
2018-05-10T07:36:43.248Z,42.93
2018-05-10T07:39:10.708Z,42.70
2018-05-10T07:41:38.924Z,39.40
2018-05-10T07:44:06.379Z,40.50
2018-05-10T07:46:33.839Z,45.57
2018-05-10T07:49:02.068Z,42.17
2018-05-10T07:51:29.520Z,40.43
2018-05-10T07:53:56.974Z,39.27
2018-05-10T07:56:24.424Z,36.87
2018-05-10T07:58:52.656Z,39.20
2018-05-10T08:01:20.113Z,39.53
2018-05-10T08:03:47.548Z,38.93
2018-05-10T08:06:15.776Z,37.47
2018-05-10T08:08:43.231Z,38.80
2018-05-10T08:11:10.682Z,37.80
2018-05-10T08:13:38.254Z,39.70
2018-05-10T08:16:06.465Z,41.37
2018-05-10T08:18:33.928Z,41.00
2018-05-10T08:21:01.392Z,40.80
2018-05-10T08:23:40.768Z,37.73
2018-05-10T08:26:08.211Z,39.03
2018-05-10T08:28:35.673Z,36.73
2018-05-10T08:31:03.127Z,40.20
2018-05-10T08:33:31.350Z,41.90
2018-05-10T08:35:58.814Z,37.90
2018-05-10T08:38:26.312Z,40.10
2018-05-10T08:40:53.759Z,40.00
2018-05-10T08:43:21.215Z,40.93
2018-05-10T08:45:48.669Z,38.57
2018-05-10T08:48:16.143Z,39.17
2018-05-10T08:50:43.621Z,40.47
2018-05-10T08:53:11.084Z,37.23
2018-05-10T08:55:38.531Z,34.87
2018-05-10T08:58:06.760Z,35.73
2018-05-10T09:00:34.213Z,33.40
2018-05-10T09:03:01.673Z,32.70
2018-05-10T09:05:29.116Z,28.67
2018-05-10T09:07:57.449Z,31.00
2018-05-10T09:10:24.916Z,30.40
2018-05-10T09:12:59.395Z,36.97
2018-05-10T09:15:26.856Z,32.27
2018-05-10T09:17:54.308Z,31.93
2018-05-10T09:20:21.819Z,33.70
2018-05-10T09:22:49.219Z,31.40
2018-05-10T09:25:16.681Z,35.10
2018-05-10T09:27:44.136Z,33.53
2018-05-10T09:30:11.597Z,35.73
2018-05-10T09:32:39.813Z,34.80
2018-05-10T09:35:07.271Z,32.90
2018-05-10T09:37:34.728Z,32.70
2018-05-10T09:40:02.188Z,34.90
2018-05-10T09:42:30.405Z,35.50
2018-05-10T09:44:57.966Z,32.60
2018-05-10T09:47:25.369Z,34.47
2018-05-10T09:49:52.825Z,33.10
2018-05-10T09:52:20.275Z,29.43
2018-05-10T09:54:47.741Z,32.80
2018-05-10T09:57:15.192Z,36.30
2018-05-10T09:59:42.656Z,36.53
2018-05-10T10:02:10.873Z,32.83
2018-05-10T10:04:38.332Z,36.30
2018-05-10T10:07:05.784Z,37.67
2018-05-10T10:09:34.012Z,36.63
2018-05-10T10:12:01.533Z,35.47
2018-05-10T10:14:29.759Z,38.13
2018-05-10T10:16:57.228Z,36.33
2018-05-10T10:19:24.692Z,41.90
2018-05-10T10:21:52.140Z,42.30
2018-05-10T10:24:19.604Z,41.77
2018-05-10T10:26:47.825Z,38.63
2018-05-10T10:29:15.293Z,38.97
2018-05-10T10:31:42.741Z,35.20
2018-05-10T10:34:10.232Z,40.33
2018-05-10T10:36:37.735Z,40.67
2018-05-10T10:39:05.192Z,36.30
2018-05-10T10:41:32.647Z,36.57
2018-05-10T10:44:00.104Z,38.13
2018-05-10T10:46:28.321Z,35.30
2018-05-10T10:48:55.779Z,37.17
2018-05-10T10:51:23.237Z,38.43
2018-05-10T10:53:50.778Z,34.80
2018-05-10T10:56:18.156Z,40.40
2018-05-10T10:58:45.652Z,37.40
2018-05-10T11:01:13.104Z,34.37
2018-05-10T11:03:40.571Z,32.63
2018-05-10T11:06:08.028Z,35.87
2018-05-10T11:08:35.492Z,36.10
2018-05-10T11:11:02.940Z,37.70
2018-05-10T11:13:31.164Z,35.73
2018-05-10T11:15:58.735Z,38.30
2018-05-10T11:18:26.208Z,35.23
2018-05-10T11:20:53.684Z,36.80
2018-05-10T11:23:21.120Z,39.00
2018-05-10T11:25:48.588Z,34.97
2018-05-10T11:28:16.036Z,38.43
2018-05-10T11:30:44.276Z,35.70
2018-05-10T11:33:11.746Z,38.00
2018-05-10T11:35:39.184Z,34.10
2018-05-10T11:38:06.632Z,39.03
2018-05-10T11:40:34.872Z,28.23
2018-05-10T11:43:02.333Z,23.37
2018-05-10T11:45:29.792Z,19.97
2018-05-10T11:47:57.249Z,18.47
2018-05-10T11:50:24.711Z,17.87
2018-05-10T11:52:52.931Z,16.80
2018-05-10T11:55:20.388Z,14.43
2018-05-10T11:57:47.845Z,14.53
2018-05-10T12:00:15.308Z,13.77
2018-05-10T12:02:42.756Z,18.00
2018-05-10T12:05:10.991Z,15.93
2018-05-10T12:07:38.448Z,13.47
2018-05-10T12:10:07.013Z,15.60
2018-05-10T12:12:35.232Z,13.67
2018-05-10T12:15:02.692Z,13.23
2018-05-10T12:17:30.160Z,17.13
2018-05-10T12:19:57.609Z,14.20
2018-05-10T12:22:25.824Z,13.13
2018-05-10T12:24:53.280Z,14.20
2018-05-10T12:27:20.736Z,13.70
2018-05-10T12:29:48.964Z,14.67
2018-05-10T12:32:16.415Z,17.07
2018-05-10T12:37:18.633Z,15.50
2018-05-10T12:39:46.088Z,15.23
2018-05-10T12:42:13.540Z,16.93
2018-05-10T12:44:41.765Z,22.00
2018-05-10T12:47:09.216Z,21.23
2018-05-10T12:49:36.684Z,18.17
2018-05-10T12:52:04.152Z,22.80
2018-05-10T12:54:31.609Z,25.17
2018-05-10T12:56:59.064Z,26.93
2018-05-10T12:59:27.283Z,27.67
2018-05-10T13:01:54.740Z,29.07
2018-05-10T13:04:22.200Z,31.43
2018-05-10T13:06:49.721Z,29.20
2018-05-10T13:09:17.884Z,28.60
2018-05-10T13:11:45.337Z,29.83
2018-05-10T13:14:12.803Z,31.17
2018-05-10T13:16:40.259Z,29.70
2018-05-10T13:19:08.500Z,31.07
2018-05-10T13:21:36.024Z,30.77
2018-05-10T13:24:03.411Z,30.83
2018-05-10T13:26:30.914Z,30.07
2018-05-10T13:28:58.439Z,34.53
2018-05-10T13:31:25.897Z,34.20
2018-05-10T13:33:53.344Z,31.40
2018-05-10T13:36:21.568Z,33.50
2018-05-10T13:38:49.033Z,28.17
2018-05-10T13:41:16.483Z,25.40
2018-05-10T13:43:44.704Z,26.27
2018-05-10T13:46:12.181Z,24.70
2018-05-10T13:48:39.616Z,21.60
2018-05-10T13:51:07.096Z,23.90
2018-05-10T13:53:34.549Z,24.43
2018-05-10T13:56:02.780Z,23.70
2018-05-10T13:58:30.239Z,24.00
2018-05-10T14:00:57.696Z,20.90
2018-05-10T14:03:25.152Z,18.60
2018-05-10T14:05:52.612Z,17.67
2018-05-10T14:08:20.111Z,22.13
2018-05-10T14:10:47.608Z,19.73
2018-05-10T14:13:15.020Z,20.97
2018-05-10T14:15:42.488Z,16.50
2018-05-10T14:18:10.704Z,17.33
2018-05-10T14:20:38.165Z,12.97
2018-05-10T14:23:05.628Z,9.43
2018-05-10T14:25:33.075Z,13.63
2018-05-10T14:28:01.290Z,9.17
2018-05-10T14:30:28.744Z,7.30
2018-05-10T14:32:56.192Z,8.70
2018-05-10T14:35:24.413Z,7.23
2018-05-10T14:37:51.862Z,7.57
2018-05-10T14:40:20.081Z,9.03
2018-05-10T14:42:47.528Z,8.80
2018-05-10T14:45:15.028Z,7.67
2018-05-10T14:47:42.476Z,10.47
2018-05-10T14:50:09.932Z,8.30
2018-05-10T14:52:37.377Z,10.43
2018-05-10T14:55:05.599Z,7.27
2018-05-10T14:57:33.113Z,7.83
2018-05-10T15:00:00.573Z,7.60
2018-05-10T15:02:28.012Z,7.40
2018-05-10T15:04:55.510Z,8.80
2018-05-10T15:07:22.956Z,7.83
2018-05-10T15:09:50.431Z,7.47
2018-05-10T15:12:17.857Z,9.60
2018-05-10T15:14:46.084Z,9.27
2018-05-10T15:17:13.531Z,9.37
2018-05-10T15:19:40.984Z,7.03
2018-05-10T15:22:09.196Z,11.63
2018-05-10T15:24:36.656Z,10.83
2018-05-10T15:27:04.104Z,10.73
2018-05-10T15:29:32.328Z,10.17
2018-05-10T15:31:59.774Z,12.63
2018-05-10T15:34:27.265Z,10.03
2018-05-10T15:36:54.729Z,12.30
2018-05-10T15:39:22.178Z,9.43
2018-05-10T15:41:49.643Z,10.03
2018-05-10T15:44:17.848Z,10.90
2018-05-10T15:46:45.312Z,11.33
2018-05-10T15:49:12.756Z,9.97
2018-05-10T15:51:41.063Z,12.40
2018-05-10T15:54:08.424Z,11.73
2018-05-10T15:56:35.916Z,11.20
2018-05-10T15:59:03.360Z,9.73
2018-05-10T16:01:30.820Z,12.70
2018-05-10T16:03:59.144Z,12.23
2018-05-10T16:06:26.600Z,10.07
2018-05-10T16:08:54.048Z,9.90
2018-05-10T16:11:22.273Z,12.87
2018-05-10T16:13:49.807Z,15.33
2018-05-10T16:16:17.210Z,12.03
2018-05-10T16:18:44.658Z,13.63
2018-05-10T16:21:12.117Z,12.30
2018-05-10T16:23:39.568Z,12.63
2018-05-10T16:26:07.792Z,10.33
2018-05-10T16:28:35.240Z,9.37
2018-05-10T16:31:03.463Z,12.13
2018-05-10T16:33:31.081Z,14.73
2018-05-10T16:35:58.419Z,14.80
2018-05-10T16:38:26.711Z,12.77
2018-05-10T16:40:55.685Z,12.23
2018-05-10T16:43:23.129Z,12.43
2018-05-10T16:45:50.592Z,14.23
2018-05-10T16:48:18.052Z,13.20
2018-05-10T16:50:46.276Z,10.07
2018-05-10T16:53:13.823Z,11.97
2018-05-10T16:55:41.196Z,12.43
2018-05-10T16:58:08.652Z,13.40
2018-05-10T17:00:36.880Z,13.30
2018-05-10T17:03:04.328Z,10.20
2018-05-10T17:05:31.789Z,10.40
2018-05-10T17:07:59.244Z,11.93
2018-05-10T17:10:27.469Z,15.47
2018-05-10T17:12:54.920Z,13.83
2018-05-10T17:15:22.385Z,15.47
2018-05-10T17:17:49.833Z,9.53
2018-05-10T17:20:18.056Z,15.07
2018-05-10T17:22:45.505Z,11.87
2018-05-10T17:25:12.972Z,12.87
2018-05-10T17:27:40.431Z,15.00
2018-05-10T17:30:08.656Z,13.50
2018-05-10T17:32:36.108Z,12.43
2018-05-10T17:35:03.569Z,13.10
2018-05-10T17:37:31.022Z,14.90
2018-05-10T17:39:59.250Z,14.43
2018-05-10T17:42:26.704Z,17.47
2018-05-10T17:44:54.156Z,15.40
2018-05-10T17:47:21.620Z,12.53
2018-05-10T17:49:49.840Z,12.83
2018-05-10T17:52:17.301Z,13.23
2018-05-10T17:54:44.752Z,14.30
2018-05-10T17:57:12.212Z,15.30
2018-05-10T17:59:40.432Z,15.53
2018-05-10T18:02:07.897Z,16.50
2018-05-10T18:04:35.408Z,16.90
2018-05-10T18:07:02.875Z,14.60
2018-05-10T18:09:30.329Z,13.37
2018-05-10T18:11:57.801Z,14.30
2018-05-10T18:14:25.252Z,14.47
2018-05-10T18:16:52.719Z,14.70
2018-05-10T18:19:20.164Z,15.07
2018-05-10T18:21:47.625Z,13.70
2018-05-10T18:24:15.088Z,13.90
2018-05-10T18:26:43.320Z,11.77
2018-05-10T18:29:12.868Z,15.23
2018-05-10T18:31:40.330Z,15.00
2018-05-10T18:34:07.800Z,15.10
2018-05-10T18:36:35.259Z,13.40
2018-05-10T18:39:02.795Z,12.17
2018-05-10T18:41:30.183Z,16.20
2018-05-10T18:43:57.623Z,12.23
2018-05-10T18:46:25.109Z,12.40
2018-05-10T18:48:52.557Z,12.50
2018-05-10T18:51:20.029Z,14.27
2018-05-10T18:53:47.476Z,17.03
2018-05-10T18:56:14.986Z,17.47
2018-05-10T18:58:42.432Z,16.90
2018-05-10T19:01:09.895Z,14.37
2018-05-10T19:03:37.344Z,16.90
2018-05-10T19:06:04.812Z,14.40
2018-05-10T19:08:32.256Z,15.20
2018-05-10T19:10:59.808Z,16.40
2018-05-10T19:13:27.264Z,16.00
2018-05-10T19:15:54.769Z,15.60
2018-05-10T19:18:22.225Z,13.43
2018-05-10T19:20:49.733Z,16.07
2018-05-10T19:23:17.137Z,14.30
2018-05-10T19:25:44.600Z,13.67
2018-05-10T19:28:12.052Z,12.87
2018-05-10T19:30:40.276Z,14.00
2018-05-10T19:33:07.728Z,15.03
2018-05-10T19:35:35.190Z,15.93
2018-05-10T19:38:02.644Z,17.00
2018-05-10T19:40:30.106Z,13.73
2018-05-10T19:42:58.332Z,16.57
2018-05-10T19:45:25.784Z,17.57
2018-05-10T19:47:53.244Z,14.13
2018-05-10T19:50:20.703Z,15.17
2018-05-10T19:52:49.189Z,13.83
2018-05-10T19:55:17.400Z,15.30
2018-05-10T19:57:44.869Z,13.50
2018-05-10T20:00:12.315Z,14.20
2018-05-10T20:02:40.548Z,14.40
2018-05-10T20:05:07.998Z,13.27
2018-05-10T20:07:35.460Z,13.10
2018-05-10T20:10:02.952Z,12.47
2018-05-10T20:12:30.449Z,15.10
2018-05-10T20:14:57.869Z,14.27
2018-05-10T20:17:25.336Z,13.90
2018-05-10T20:19:53.580Z,13.70
2018-05-10T20:22:21.061Z,14.97
2018-05-10T20:24:48.505Z,13.80
2018-05-10T20:27:16.024Z,15.93
2018-05-10T20:29:43.477Z,18.70
2018-05-10T20:32:11.733Z,15.33
2018-05-10T20:34:39.157Z,15.43
2018-05-10T20:37:06.796Z,18.80
2018-05-10T20:39:34.243Z,14.03
2018-05-10T20:42:01.709Z,12.70
2018-05-10T20:44:29.161Z,13.43
2018-05-10T20:46:56.621Z,14.77
2018-05-10T20:49:24.073Z,17.90
2018-05-10T20:51:51.541Z,17.10
2018-05-10T20:54:19.775Z,14.40
2018-05-10T20:56:47.221Z,12.63
2018-05-10T20:59:14.680Z,13.17
2018-05-10T21:01:42.137Z,15.70
2018-05-10T21:04:09.646Z,14.37
2018-05-10T21:06:37.816Z,14.13
2018-05-10T21:09:05.273Z,14.43
2018-05-10T21:11:32.796Z,13.23
2018-05-10T21:14:00.237Z,14.77
2018-05-10T21:16:27.725Z,14.10
2018-05-10T21:18:55.159Z,12.73
2018-05-10T21:21:22.640Z,12.63
2018-05-10T21:23:50.096Z,15.77
2018-05-10T21:26:17.559Z,16.30
2018-05-10T21:28:45.008Z,12.53
2018-05-10T21:31:12.469Z,13.43
2018-05-10T21:33:40.685Z,13.03
2018-05-10T21:36:08.149Z,15.03
2018-05-10T21:38:35.596Z,15.23
2018-05-10T21:41:03.820Z,12.03
2018-05-10T21:43:31.287Z,16.20
2018-05-10T21:45:58.859Z,14.70
2018-05-10T21:48:26.288Z,13.33
2018-05-10T21:50:54.504Z,13.17
2018-05-10T21:53:22.046Z,15.23
2018-05-10T21:55:49.420Z,14.13
2018-05-10T21:58:16.884Z,13.10
2018-05-10T22:00:45.095Z,13.80
2018-05-10T22:03:12.560Z,13.93
2018-05-10T22:05:40.008Z,12.97
2018-05-10T22:08:08.232Z,11.00
2018-05-10T22:10:35.681Z,13.10
2018-05-10T22:13:03.140Z,12.50
2018-05-10T22:15:30.604Z,11.73
2018-05-10T22:17:58.083Z,13.10
2018-05-10T22:20:25.533Z,14.77
2018-05-10T22:22:53.768Z,11.57
2018-05-10T22:25:21.209Z,13.07
2018-05-10T22:27:49.432Z,12.03
2018-05-10T22:30:16.882Z,9.43
2018-05-10T22:32:44.340Z,11.60
2018-05-10T22:35:11.878Z,11.23
2018-05-10T22:37:40.017Z,14.13
2018-05-10T22:40:07.469Z,12.27
2018-05-10T22:42:34.928Z,10.97
2018-05-10T22:45:02.372Z,10.97
2018-05-10T22:47:30.605Z,10.30
2018-05-10T22:49:58.048Z,9.87
2018-05-10T22:52:25.504Z,10.93
2018-05-10T22:54:52.960Z,11.20
2018-05-10T22:57:21.201Z,10.13
2018-05-10T22:59:48.664Z,9.50
2018-05-10T23:02:16.101Z,11.97
2018-05-10T23:04:44.314Z,11.87
2018-05-10T23:07:11.780Z,12.93
2018-05-10T23:09:39.262Z,11.77
2018-05-10T23:12:06.767Z,11.57
2018-05-10T23:14:34.916Z,10.13
2018-05-10T23:17:02.380Z,10.70
2018-05-10T23:19:29.844Z,12.60
2018-05-10T23:21:57.308Z,12.73
2018-05-10T23:24:24.836Z,12.50
2018-05-10T23:26:52.228Z,11.23
2018-05-10T23:29:19.678Z,10.53
2018-05-10T23:31:47.903Z,11.93
2018-05-10T23:34:15.348Z,11.60
2018-05-10T23:36:43.581Z,14.70
2018-05-10T23:39:11.024Z,13.87
2018-05-10T23:41:38.486Z,12.70
2018-05-10T23:44:05.950Z,15.13
2018-05-10T23:46:33.408Z,13.57
2018-05-10T23:49:01.633Z,13.67
2018-05-10T23:51:29.083Z,15.40
2018-05-10T23:53:56.535Z,12.17
2018-05-10T23:56:24.748Z,13.13
2018-05-10T23:58:52.208Z,16.30
